Time;durP1;ratioP1;P1;durP2;ratioP2;P2;SDS_P1;SDS_P2;PMS_P1;PMS_P2;Temp;Humidity;BMP_temperature;BMP_pressure;BME280_temperature;BME280_humidity;BME280_pressure;Samples;Min_cycle;Max_cycle;Signal;HPM_P1;HPM_P2
2022/09/01 00:01:26;;;;;;;2.70;1.48;;;;;;;16.38;49.01;101839.47;4975715;28;20139;-93
2022/09/01 00:04:01;;;;;;;2.22;1.33;;;;;;;16.32;48.91;101837.16;4976659;28;20018;-94
2022/09/01 00:06:28;;;;;;;4.00;1.58;;;;;;;16.24;49.19;101830.50;4973035;28;20039;-93
2022/09/01 00:08:55;;;;;;;4.32;1.20;;;;;;;16.16;49.14;101842.56;4975748;28;20145;-91
2022/09/01 00:11:23;;;;;;;5.88;1.70;;;;;;;16.10;49.23;101834.00;4975137;28;20306;-90
2022/09/01 00:13:49;;;;;;;2.42;1.40;;;;;;;16.08;49.66;101839.44;4975759;28;20085;-91
2022/09/01 00:16:16;;;;;;;3.20;1.65;;;;;;;16.06;49.32;101838.69;4973232;28;20066;-92
2022/09/01 00:18:48;;;;;;;4.25;1.48;;;;;;;15.99;49.90;101842.66;4973695;28;20027;-90
2022/09/01 00:21:16;;;;;;;3.53;1.73;;;;;;;15.93;49.80;101835.84;4973456;28;20485;-92
2022/09/01 00:23:41;;;;;;;2.58;1.48;;;;;;;15.91;50.18;101835.06;4975198;28;20038;-93
2022/09/01 00:26:06;;;;;;;3.65;1.50;;;;;;;15.89;50.30;101831.59;4972872;28;20014;-92
2022/09/01 00:28:33;;;;;;;2.13;1.60;;;;;;;15.87;50.54;101838.00;4959553;28;20499;-92
2022/09/01 00:30:59;;;;;;;2.08;1.52;;;;;;;15.81;50.73;101831.19;4974503;28;20026;-91
2022/09/01 00:33:24;;;;;;;3.15;1.70;;;;;;;15.78;50.89;101834.03;4975358;28;20385;-90
2022/09/01 00:35:50;;;;;;;4.78;1.67;;;;;;;15.74;51.07;101832.47;4973507;28;20024;-91
2022/09/01 00:38:15;;;;;;;3.53;1.45;;;;;;;15.69;51.35;101832.72;4982931;28;20023;-93
2022/09/01 00:40:40;;;;;;;1.95;1.50;;;;;;;15.64;51.55;101839.28;4996770;28;20050;-92
2022/09/01 00:43:23;;;;;;;2.17;1.50;;;;;;;15.62;51.64;101836.69;4993024;28;20066;-88
2022/09/01 00:45:50;;;;;;;2.33;1.30;;;;;;;15.59;51.94;101835.97;4983675;28;20041;-91
2022/09/01 00:48:16;;;;;;;3.88;1.33;;;;;;;15.48;52.34;101828.53;4987264;28;20030;-93
2022/09/01 00:50:42;;;;;;;4.57;1.73;;;;;;;15.50;52.22;101836.50;4985900;28;20058;-93
2022/09/01 00:53:08;;;;;;;3.50;1.67;;;;;;;15.46;52.64;101833.13;4984722;28;20040;-92
2022/09/01 00:55:37;;;;;;;4.15;1.50;;;;;;;15.47;52.70;101840.25;4986860;28;20051;-92
2022/09/01 00:58:05;;;;;;;3.38;1.60;;;;;;;15.43;53.06;101836.00;4987853;28;20031;-91
2022/09/01 01:00:39;;;;;;;3.05;1.60;;;;;;;15.41;53.17;101835.19;4990664;28;20027;-92
2022/09/01 01:03:06;;;;;;;2.47;1.30;;;;;;;15.35;53.11;101830.19;4992003;28;20041;-93
2022/09/01 01:05:39;;;;;;;3.67;1.70;;;;;;;15.32;53.40;101836.56;4984568;28;20068;-92
2022/09/01 01:08:06;;;;;;;4.00;1.40;;;;;;;15.29;53.59;101828.69;4982657;28;20023;-93
2022/09/01 01:10:35;;;;;;;4.95;1.50;;;;;;;15.18;53.86;101820.38;4986731;28;20027;-93
2022/09/01 01:13:04;;;;;;;2.72;1.70;;;;;;;15.19;54.04;101832.84;4985938;28;20093;-92
2022/09/01 01:15:30;;;;;;;4.07;1.95;;;;;;;15.21;54.08;101825.56;4988910;28;20038;-94
2022/09/01 01:17:55;;;;;;;4.38;1.80;;;;;;;15.13;54.27;101825.09;4976941;28;20035;-93
2022/09/01 01:23:35;;;;;;;2.38;1.70;;;;;;;15.10;54.32;101822.63;4975552;28;20404;-93
2022/09/01 01:26:03;;;;;;;2.05;1.35;;;;;;;15.09;54.74;101831.59;4969601;28;20041;-92
2022/09/01 01:28:31;;;;;;;2.78;1.42;;;;;;;15.05;54.84;101828.22;4975155;28;20034;-95
2022/09/01 01:31:04;;;;;;;2.22;1.50;;;;;;;14.97;55.15;101811.69;4973802;28;20046;-93
2022/09/01 01:33:40;;;;;;;3.33;1.80;;;;;;;14.92;55.21;101821.75;4954178;28;20048;-92
2022/09/01 01:36:12;;;;;;;2.47;1.40;;;;;;;14.94;55.21;101822.56;4969342;28;20034;-93
2022/09/01 01:38:43;;;;;;;2.85;1.73;;;;;;;14.94;55.34;101823.44;4972939;28;20038;-92
2022/09/01 01:41:14;;;;;;;1.77;1.45;;;;;;;14.89;55.61;101832.66;4975536;28;20019;-93
2022/09/01 01:43:40;;;;;;;3.13;1.50;;;;;;;14.86;55.72;101822.09;4969511;28;20047;-93
2022/09/01 01:46:07;;;;;;;2.58;1.65;;;;;;;14.82;56.13;101826.75;4967128;28;20030;-93
2022/09/01 01:48:35;;;;;;;2.13;1.63;;;;;;;14.81;56.29;101826.84;4972387;28;20030;-93
2022/09/01 01:51:03;;;;;;;3.08;1.50;;;;;;;14.74;56.49;101830.78;4974883;28;20031;-92
2022/09/01 01:53:29;;;;;;;3.35;1.80;;;;;;;14.70;56.55;101835.44;4972352;28;20121;-92
2022/09/01 01:55:55;;;;;;;2.05;1.40;;;;;;;14.73;56.67;101829.94;4975159;28;20039;-92
2022/09/01 01:58:23;;;;;;;3.22;1.70;;;;;;;14.66;56.85;101831.19;4978559;28;20269;-93
2022/09/01 02:00:50;;;;;;;2.38;1.50;;;;;;;14.66;56.77;101831.19;4976506;28;20037;-93
2022/09/01 02:03:18;;;;;;;3.65;1.63;;;;;;;14.67;56.86;101831.13;4976806;28;20035;-92
2022/09/01 02:05:46;;;;;;;2.38;1.77;;;;;;;14.62;57.20;101829.63;4986366;28;20035;-93
2022/09/01 02:08:14;;;;;;;4.40;1.63;;;;;;;14.62;57.21;101829.63;4993980;28;20042;-93
2022/09/01 02:10:43;;;;;;;2.25;1.50;;;;;;;14.63;57.28;101836.69;4988338;28;20053;-92
2022/09/01 02:13:15;;;;;;;5.88;2.00;;;;;;;14.54;57.48;101824.66;4994336;28;20305;-92
2022/09/01 02:15:44;;;;;;;4.75;1.90;;;;;;;14.48;57.44;101822.28;4981383;28;20049;-94
2022/09/01 02:18:23;;;;;;;1.80;1.60;;;;;;;14.51;57.28;101830.19;4972351;28;20038;-92
2022/09/01 02:20:50;;;;;;;3.30;1.50;;;;;;;14.45;57.72;101827.78;4971880;28;20042;-93
2022/09/01 02:23:23;;;;;;;3.05;1.40;;;;;;;14.40;57.98;101832.50;4965177;28;20115;-93
2022/09/01 02:25:52;;;;;;;3.53;1.80;;;;;;;14.34;58.18;101824.81;4973874;28;20107;-92
2022/09/01 02:28:18;;;;;;;2.28;1.70;;;;;;;14.36;58.15;101830.94;4974370;28;20045;-92
2022/09/01 02:30:48;;;;;;;2.05;1.48;;;;;;;14.34;58.32;101824.81;4971291;28;20035;-92
2022/09/01 02:33:18;;;;;;;2.08;1.38;;;;;;;14.32;58.29;101830.22;4966027;28;20031;-91
2022/09/01 02:35:49;;;;;;;2.92;1.50;;;;;;;14.29;58.51;101818.78;4973471;28;20043;-92
2022/09/01 02:38:16;;;;;;;3.80;1.88;;;;;;;14.29;58.36;101829.50;4969521;28;20015;-92
2022/09/01 02:40:45;;;;;;;3.70;1.52;;;;;;;14.27;58.53;101824.25;4947493;28;20023;-91
2022/09/01 02:43:12;;;;;;;5.82;1.90;;;;;;;14.21;58.87;101827.22;4975619;28;20493;-93
2022/09/01 02:45:38;;;;;;;2.78;1.70;;;;;;;14.25;58.80;101825.25;4970556;28;20031;-93
2022/09/01 02:48:09;;;;;;;3.33;2.08;;;;;;;14.20;58.94;101830.84;4972940;28;20389;-93
2022/09/01 02:50:39;;;;;;;2.63;1.80;;;;;;;14.14;59.03;101813.28;4957643;28;20042;-93
2022/09/01 02:53:08;;;;;;;2.63;1.80;;;;;;;14.14;59.16;101824.00;4973966;28;20469;-93
2022/09/01 02:55:38;;;;;;;3.22;1.95;;;;;;;14.12;59.46;101822.31;4964862;28;20354;-93
2022/09/01 02:58:03;;;;;;;2.80;1.80;;;;;;;14.11;59.29;101823.28;4971255;28;20388;-94
2022/09/01 03:00:32;;;;;;;2.50;1.55;;;;;;;14.09;59.64;101823.34;4972968;28;20039;-93
2022/09/01 03:02:59;;;;;;;2.90;1.50;;;;;;;14.09;59.49;101812.66;4972091;28;20054;-93
2022/09/01 03:05:28;;;;;;;4.40;1.70;;;;;;;14.12;59.59;101822.31;4970950;28;20116;-92
2022/09/01 03:07:59;;;;;;;4.35;2.42;;;;;;;14.11;59.88;101821.47;4968971;28;20031;-94
2022/09/01 03:10:31;;;;;;;3.05;1.70;;;;;;;14.11;59.83;101805.41;4971494;28;20499;-93
2022/09/01 03:13:02;;;;;;;3.15;1.77;;;;;;;14.10;59.67;101806.34;4969221;28;20034;-93
2022/09/01 03:15:28;;;;;;;4.05;1.88;;;;;;;14.10;59.76;101809.03;4968628;28;20111;-92
2022/09/01 03:17:54;;;;;;;3.38;1.75;;;;;;;14.14;59.81;101815.97;4973952;28;20054;-95
2022/09/01 03:20:20;;;;;;;2.83;1.60;;;;;;;14.13;59.79;101808.88;4966416;28;20026;-93
2022/09/01 03:22:47;;;;;;;3.55;1.50;;;;;;;14.08;60.08;101807.34;4953230;28;20416;-94
2022/09/01 03:25:13;;;;;;;3.22;1.80;;;;;;;14.15;59.97;101806.13;4969602;28;20053;-94
2022/09/01 03:27:39;;;;;;;2.63;1.70;;;;;;;14.11;59.98;101816.09;4967519;28;20039;-94
2022/09/01 03:30:05;;;;;;;4.97;2.00;;;;;;;14.07;60.12;101805.63;4967642;28;20039;-91
2022/09/01 03:32:31;;;;;;;2.90;1.58;;;;;;;14.00;60.54;101807.72;4965493;28;20082;-94
2022/09/01 03:34:56;;;;;;;4.13;1.90;;;;;;;13.95;60.64;101821.34;4967204;28;20030;-93
2022/09/01 03:37:22;;;;;;;3.45;1.70;;;;;;;13.92;60.73;101815.31;4964103;28;20053;-93
2022/09/01 03:39:47;;;;;;;4.20;1.80;;;;;;;13.89;60.98;101799.41;4970415;28;20029;-91
2022/09/01 03:42:24;;;;;;;2.65;1.92;;;;;;;13.89;60.96;101812.78;4969157;28;20051;-91
2022/09/01 03:44:50;;;;;;;4.57;1.92;;;;;;;13.84;61.15;101815.69;4964047;28;20050;-91
2022/09/01 03:47:17;;;;;;;5.22;1.83;;;;;;;13.82;61.42;101803.31;4969308;28;20530;-91
2022/09/01 03:49:44;;;;;;;2.70;1.70;;;;;;;13.79;61.50;101806.13;4975138;28;20041;-92
2022/09/01 03:52:10;;;;;;;3.85;1.92;;;;;;;13.77;61.46;101806.22;4974573;28;20599;-94
2022/09/01 03:54:36;;;;;;;3.28;2.08;;;;;;;13.75;61.68;101805.41;4975152;28;20034;-92
2022/09/01 03:57:04;;;;;;;2.53;1.80;;;;;;;13.70;62.15;101807.44;4973969;28;20034;-93
2022/09/01 03:59:31;;;;;;;3.17;1.95;;;;;;;13.71;61.89;101806.53;4969374;28;20424;-93
2022/09/01 04:01:58;;;;;;;4.10;2.10;;;;;;;13.70;61.89;101804.75;4966205;28;20035;-92
2022/09/01 04:04:24;;;;;;;3.83;2.00;;;;;;;13.75;62.01;101812.56;4975112;28;20046;-94
2022/09/01 04:06:50;;;;;;;3.85;2.10;;;;;;;13.72;61.85;101808.25;4975588;28;20038;-94
2022/09/01 04:09:15;;;;;;;2.10;1.90;;;;;;;13.68;62.23;101806.66;4976413;28;20039;-92
2022/09/01 04:11:40;;;;;;;3.78;1.90;;;;;;;13.64;62.52;101805.06;4973963;28;20062;-92
2022/09/01 04:14:06;;;;;;;2.60;1.90;;;;;;;13.65;62.40;101802.31;4972661;28;20109;-92
2022/09/01 04:19:24;;;;;;;2.60;1.75;;;;;;;13.59;62.81;101801.75;4976814;28;20062;-92
2022/09/01 04:21:54;;;;;;;3.30;2.00;;;;;;;13.56;62.61;101801.91;4975965;28;20035;-93
2022/09/01 04:24:26;;;;;;;4.05;1.90;;;;;;;13.58;62.63;101800.00;4975907;28;20038;-92
2022/09/01 04:26:53;;;;;;;4.32;1.90;;;;;;;13.68;62.51;101814.69;4975961;28;20038;-93
2022/09/01 04:29:26;;;;;;;3.97;2.08;;;;;;;13.75;62.28;101812.56;4975132;28;20037;-93
2022/09/01 04:31:52;;;;;;;2.22;1.70;;;;;;;13.75;62.07;101802.72;4973748;28;20045;-91
2022/09/01 04:34:21;;;;;;;3.85;2.35;;;;;;;13.85;62.10;101811.19;4967032;28;20091;-93
2022/09/01 04:36:47;;;;;;;2.78;2.03;;;;;;;13.86;62.00;101813.78;4973372;28;20474;-93
2022/09/01 04:39:12;;;;;;;3.97;2.20;;;;;;;13.85;61.84;101805.84;4973016;28;20134;-91
2022/09/01 04:41:44;;;;;;;3.75;1.80;;;;;;;13.85;61.95;101811.19;4972582;28;20126;-91
2022/09/01 04:44:10;;;;;;;2.97;2.00;;;;;;;13.85;61.81;101800.47;4979449;28;20045;-91
2022/09/01 04:46:41;;;;;;;2.63;2.00;;;;;;;13.85;61.85;101813.88;4975747;28;20031;-93
2022/09/01 04:49:11;;;;;;;3.47;2.20;;;;;;;13.81;62.02;101815.81;4977702;28;20221;-91
2022/09/01 04:51:38;;;;;;;4.72;2.40;;;;;;;13.79;62.31;101809.66;4977743;28;20030;-93
2022/09/01 04:54:10;;;;;;;4.65;2.20;;;;;;;13.71;62.35;101811.88;4976761;28;20027;-92
2022/09/01 04:56:37;;;;;;;3.00;2.10;;;;;;;13.62;62.70;101812.28;4979733;28;20145;-91
2022/09/01 04:59:05;;;;;;;2.78;2.08;;;;;;;13.59;62.83;101809.78;4978716;28;20054;-93
2022/09/01 05:01:41;;;;;;;5.28;2.00;;;;;;;13.54;63.18;101818.00;4977356;28;20042;-96
2022/09/01 05:04:11;;;;;;;5.32;2.50;;;;;;;13.51;63.09;101825.34;4960482;28;20038;-93
2022/09/01 05:06:40;;;;;;;5.82;2.90;;;;;;;13.43;63.25;101817.66;4966692;28;20031;-92
2022/09/01 05:09:07;;;;;;;3.10;2.33;;;;;;;13.43;63.40;101815.84;4970959;28;20093;-93
2022/09/01 05:11:34;;;;;;;4.22;2.13;;;;;;;13.41;63.42;101815.03;4972625;28;20089;-94
2022/09/01 05:14:01;;;;;;;3.75;2.28;;;;;;;13.35;63.37;101815.34;4975436;28;20039;-92
2022/09/01 05:16:27;;;;;;;4.50;2.20;;;;;;;13.34;63.60;101810.94;4977645;28;20039;-92
2022/09/01 05:18:54;;;;;;;8.52;2.38;;;;;;;13.35;63.68;101820.69;4979463;28;20085;-91
2022/09/01 05:21:23;;;;;;;4.40;2.50;;;;;;;13.36;63.65;101825.09;4965708;28;20134;-92
2022/09/01 05:23:50;;;;;;;3.80;2.25;;;;;;;13.32;63.74;101815.50;4973361;28;20030;-93
2022/09/01 05:26:19;;;;;;;4.18;2.40;;;;;;;13.34;63.46;101827.00;4971370;28;20053;-93
2022/09/01 05:28:46;;;;;;;2.92;2.22;;;;;;;13.34;63.72;101820.78;4973491;28;20070;-93
2022/09/01 05:31:12;;;;;;;3.25;2.40;;;;;;;13.31;63.94;101816.44;4974423;28;20161;-93
2022/09/01 05:33:44;;;;;;;7.55;2.30;;;;;;;13.36;63.83;101826.91;4977977;28;20498;-94
2022/09/01 05:36:11;;;;;;;3.63;2.25;;;;;;;13.36;63.68;101832.25;4972709;28;20269;-92
2022/09/01 05:38:39;;;;;;;5.90;2.58;;;;;;;13.36;63.90;101824.22;4974422;28;20027;-94
2022/09/01 05:41:07;;;;;;;5.40;2.50;;;;;;;13.37;63.73;101829.50;4988587;28;20026;-92
2022/09/01 05:43:34;;;;;;;4.90;2.78;;;;;;;13.36;63.79;101826.91;4988743;28;20027;-91
2022/09/01 05:46:00;;;;;;;4.05;2.60;;;;;;;13.42;63.99;101827.50;4993039;28;20027;-91
2022/09/01 05:48:29;;;;;;;6.72;2.63;;;;;;;13.39;63.99;101816.94;4989043;28;20035;-90
2022/09/01 05:50:58;;;;;;;3.95;2.55;;;;;;;13.47;64.02;101826.41;4972792;28;20035;-93
2022/09/01 05:53:25;;;;;;;6.45;3.03;;;;;;;13.53;64.11;101828.78;4972964;28;20399;-91
2022/09/01 05:55:56;;;;;;;4.38;2.40;;;;;;;13.60;63.65;101835.59;4970724;28;20035;-92
2022/09/01 05:58:24;;;;;;;4.38;2.67;;;;;;;13.77;63.48;101829.44;4969926;28;20109;-90
2022/09/01 06:00:52;;;;;;;5.10;2.67;;;;;;;13.81;62.93;101829.19;4967763;28;20495;-91
2022/09/01 06:03:18;;;;;;;4.88;2.92;;;;;;;13.88;62.95;101829.78;4972138;28;20030;-92
2022/09/01 06:05:47;;;;;;;6.40;3.03;;;;;;;13.89;62.99;101832.38;4974569;28;20036;-93
2022/09/01 06:08:13;;;;;;;4.00;2.85;;;;;;;13.94;62.70;101829.47;4975101;28;20045;-91
2022/09/01 06:10:40;;;;;;;5.00;2.47;;;;;;;14.11;62.68;101839.34;4971342;28;20125;-92
2022/09/01 06:13:10;;;;;;;5.45;2.58;;;;;;;14.19;62.43;101837.16;4987565;28;20536;-93
2022/09/01 06:15:40;;;;;;;5.80;3.03;;;;;;;14.23;62.31;101840.53;4977823;28;20026;-90
2022/09/01 06:18:10;;;;;;;7.93;2.80;;;;;;;14.26;62.42;101835.03;4970875;28;20030;-92
2022/09/01 06:20:44;;;;;;;5.18;2.83;;;;;;;14.31;62.25;101825.81;4969378;28;20067;-93
2022/09/01 06:23:14;;;;;;;8.27;2.42;;;;;;;14.56;62.08;101829.94;4968282;28;20057;-93
2022/09/01 06:25:45;;;;;;;9.30;4.88;;;;;;;14.83;61.81;101831.16;4971219;28;20023;-92
2022/09/01 06:28:15;;;;;;;4.97;3.10;;;;;;;15.09;60.72;101835.16;4975757;28;20023;-91
2022/09/01 06:30:44;;;;;;;4.82;2.88;;;;;;;15.30;59.82;101830.44;4975123;28;20035;-90
2022/09/01 06:33:12;;;;;;;5.50;2.97;;;;;;;15.44;59.00;101827.84;4973067;28;20104;-92
2022/09/01 06:35:43;;;;;;;4.70;3.20;;;;;;;15.54;58.52;101840.75;4970487;28;20034;-92
2022/09/01 06:38:10;;;;;;;5.10;2.90;;;;;;;15.63;58.70;101832.16;4973944;28;20015;-93
2022/09/01 06:40:39;;;;;;;8.13;2.80;;;;;;;15.77;58.89;101826.94;4975165;28;20109;-92
2022/09/01 06:43:10;;;;;;;4.78;2.78;;;;;;;16.07;57.67;101831.50;4971520;28;20097;-92
2022/09/01 06:45:54;;;;;;;9.00;2.63;;;;;;;16.32;57.32;101831.78;4970515;28;20030;-92
2022/09/01 06:48:21;;;;;;;9.38;3.30;;;;;;;16.60;56.24;101833.69;4951090;28;20057;-91
2022/09/01 06:50:46;;;;;;;4.35;2.45;;;;;;;16.80;55.15;101837.84;4956730;28;20585;-91
2022/09/01 06:53:15;;;;;;;3.97;2.53;;;;;;;17.02;54.84;101841.94;4972267;28;20046;-93
2022/09/01 06:55:42;;;;;;;8.30;3.03;;;;;;;17.16;54.24;101840.09;4972605;28;20031;-92
2022/09/01 06:58:10;;;;;;;6.15;2.78;;;;;;;17.32;54.16;101841.84;4970128;28;20033;-90
2022/09/01 07:00:40;;;;;;;3.78;2.50;;;;;;;17.38;53.26;101830.66;4968636;28;20365;-92
2022/09/01 07:03:08;;;;;;;7.10;3.50;;;;;;;17.78;53.04;101844.28;4952731;28;20030;-92
2022/09/01 07:05:37;;;;;;;5.72;2.72;;;;;;;17.99;52.10;101842.88;4955769;28;20271;-91
2022/09/01 07:08:06;;;;;;;13.68;3.92;;;;;;;18.10;51.67;101848.44;4967928;28;20114;-92
2022/09/01 07:10:32;;;;;;;9.30;3.17;;;;;;;18.45;51.34;101849.72;4972918;28;20176;-88
2022/09/01 07:12:58;;;;;;;9.73;3.17;;;;;;;18.70;51.90;101840.84;4971021;28;20067;-91
2022/09/01 07:15:24;;;;;;;24.90;4.93;;;;;;;19.04;50.30;101853.69;4973887;28;20034;-89
2022/09/01 07:17:55;;;;;;;16.67;4.50;;;;;;;19.26;49.69;101854.84;4973102;28;20027;-93
2022/09/01 07:20:23;;;;;;;27.27;5.43;;;;;;;19.48;48.83;101854.16;4971448;28;20247;-91
2022/09/01 07:22:49;;;;;;;6.65;3.28;;;;;;;19.64;48.12;101852.97;4972933;28;20057;-89
2022/09/01 07:25:16;;;;;;;7.38;3.08;;;;;;;19.71;47.97;101845.28;4968932;28;20045;-91
2022/09/01 07:27:47;;;;;;;50.03;8.55;;;;;;;19.94;47.10;101857.13;4965650;28;20022;-90
2022/09/01 07:30:14;;;;;;;34.28;6.25;;;;;;;20.10;46.42;101848.69;4975239;28;20038;-91
2022/09/01 07:32:42;;;;;;;6.40;3.05;;;;;;;20.50;45.32;101856.53;4971311;28;20050;-88
2022/09/01 07:35:08;;;;;;;6.03;2.85;;;;;;;20.83;45.37;101856.63;4971738;28;20041;-89
2022/09/01 07:37:36;;;;;;;4.88;2.90;;;;;;;21.13;44.41;101852.47;4976493;28;20027;-87
2022/09/01 07:40:05;;;;;;;6.88;3.17;;;;;;;21.47;43.50;101857.94;4966591;28;20030;-89
2022/09/01 07:42:31;;;;;;;6.35;2.90;;;;;;;21.62;43.85;101854.84;4967921;28;20062;-89
2022/09/01 07:44:57;;;;;;;5.00;3.28;;;;;;;21.96;42.84;101851.19;4972368;28;20043;-89
2022/09/01 07:47:22;;;;;;;5.20;3.10;;;;;;;22.24;42.08;101850.66;4973335;28;20015;-89
2022/09/01 07:49:47;;;;;;;6.57;3.22;;;;;;;22.56;42.23;101857.88;4981040;28;20030;-90
2022/09/01 07:52:13;;;;;;;6.88;2.97;;;;;;;22.91;41.28;101863.03;4980658;28;20035;-91
2022/09/01 07:54:39;;;;;;;7.88;3.22;;;;;;;23.22;41.79;101860.34;4980168;28;20035;-94
2022/09/01 07:57:05;;;;;;;7.68;3.53;;;;;;;23.31;40.25;101851.38;4972899;28;20094;-92
2022/09/01 07:59:32;;;;;;;6.07;3.72;;;;;;;23.69;42.22;101861.53;4973612;28;20033;-89
2022/09/01 08:01:57;;;;;;;8.85;4.03;;;;;;;24.03;38.78;101851.16;4972762;28;20046;-89
2022/09/01 08:04:23;;;;;;;13.18;4.13;;;;;;;24.40;39.29;101861.38;4968868;28;20035;-91
2022/09/01 08:06:48;;;;;;;7.32;3.95;;;;;;;24.80;38.12;101857.63;4976423;28;20023;-92
2022/09/01 08:09:14;;;;;;;8.23;3.53;;;;;;;24.94;37.41;101859.03;4974012;28;20093;-91
2022/09/01 08:11:39;;;;;;;8.77;3.60;;;;;;;25.12;37.08;101857.25;4978748;28;20039;-92
2022/09/01 08:14:05;;;;;;;7.47;3.28;;;;;;;25.57;36.20;101859.25;4983522;28;20050;-88
2022/09/01 08:16:30;;;;;;;9.32;4.05;;;;;;;25.89;35.86;101860.69;4985780;28;20158;-89
2022/09/01 08:18:56;;;;;;;9.68;3.63;;;;;;;26.42;35.03;101854.38;4972881;28;20445;-91
2022/09/01 08:21:23;;;;;;;14.55;4.70;;;;;;;26.71;34.92;101852.28;4975455;28;20038;-89
2022/09/01 08:23:54;;;;;;;10.35;4.68;;;;;;;27.03;35.11;101856.22;4975464;28;20473;-91
2022/09/01 08:26:22;;;;;;;7.70;4.68;;;;;;;26.99;33.35;101863.03;4976671;28;20484;-91
2022/09/01 08:28:48;;;;;;;12.35;5.70;;;;;;;27.11;33.98;101855.47;4982983;28;20492;-90
2022/09/01 08:31:16;;;;;;;9.57;5.18;;;;;;;27.24;33.37;101856.72;4979845;28;20042;-92
2022/09/01 08:33:42;;;;;;;10.80;5.13;;;;;;;27.48;33.36;101858.72;4972046;28;20031;-89
2022/09/01 08:36:10;;;;;;;9.30;5.18;;;;;;;27.86;32.64;101859.25;4976605;28;20030;-91
2022/09/01 08:38:36;;;;;;;12.80;5.53;;;;;;;28.35;32.30;101858.47;4975223;28;20054;-90
2022/09/01 08:41:04;;;;;;;12.38;6.65;;;;;;;28.58;31.14;101859.53;4976403;28;20010;-89
2022/09/01 08:43:47;;;;;;;10.75;6.10;;;;;;;28.79;32.28;101850.78;4971330;28;20108;-89
2022/09/01 08:46:18;;;;;;;;;;;;;;;29.22;31.79;101862.34;4973136;28;20050;-87
2022/09/01 08:48:58;;;;;;;11.52;5.10;;;;;;;29.19;30.29;101858.09;4966884;28;20380;-90
2022/09/01 08:51:35;;;;;;;9.85;4.43;;;;;;;29.43;30.90;101865.41;4974200;28;20037;-88
2022/09/01 08:54:22;;;;;;;7.60;3.75;;;;;;;29.66;30.75;101857.25;4969333;28;20027;-88
2022/09/01 08:56:59;;;;;;;8.40;4.65;;;;;;;30.03;29.23;101861.16;4973052;28;20023;-91
2022/09/01 08:59:26;;;;;;;9.10;3.70;;;;;;;29.89;28.78;101862.81;4976662;28;20031;-90
2022/09/01 09:02:06;;;;;;;7.70;3.30;;;;;;;30.11;28.61;101854.78;4975593;28;20066;-91
2022/09/01 09:05:01;;;;;;;6.25;2.90;;;;;;;30.85;29.37;101855.94;4979601;28;20015;-92
2022/09/01 09:07:44;;;;;;;6.65;2.85;;;;;;;31.13;27.69;101847.88;4960930;29;20062;-92
2022/09/01 09:10:19;;;;;;;4.05;2.63;;;;;;;31.89;26.17;101847.66;4963844;29;20035;-88
2022/09/01 09:12:55;;;;;;;7.05;2.40;;;;;;;32.42;26.59;101853.75;4979758;28;20030;-87
2022/09/01 09:15:31;;;;;;;5.30;2.60;;;;;;;32.96;25.24;101850.41;4993674;28;20103;-91
2022/09/01 09:18:29;;;;;;;6.72;3.45;;;;;;;32.89;25.71;101852.22;4975788;28;20027;-89
2022/09/01 09:21:02;;;;;;;5.18;2.28;;;;;;;33.35;23.93;101848.94;4958163;29;20062;-91
2022/09/01 09:23:33;;;;;;;3.40;2.20;;;;;;;33.32;24.11;101844.69;4979421;28;20027;-90
2022/09/01 09:25:58;;;;;;;4.68;2.30;;;;;;;33.65;23.39;101849.50;4982021;28;20022;-89
2022/09/01 09:28:24;;;;;;;5.82;2.20;;;;;;;33.72;23.23;101840.19;4975307;28;20037;-89
2022/09/01 09:30:49;;;;;;;4.03;1.80;;;;;;;33.50;22.99;101844.16;4975498;28;20057;-89
2022/09/01 09:33:36;;;;;;;6.93;2.10;;;;;;;33.97;23.85;101841.59;4973924;28;20084;-89
2022/09/01 09:36:18;;;;;;;3.42;1.73;;;;;;;34.31;22.17;101837.81;4958161;28;20035;-91
2022/09/01 09:38:43;;;;;;;6.60;2.25;;;;;;;33.94;22.56;101849.22;4957479;28;20033;-90
2022/09/01 09:41:16;;;;;;;3.63;1.73;;;;;;;34.01;21.81;101840.97;4975390;28;20027;-92
2022/09/01 09:43:51;;;;;;;3.72;2.05;;;;;;;34.27;21.64;101837.38;4965944;28;20051;-91
2022/09/01 09:46:21;;;;;;;4.90;1.98;;;;;;;34.92;21.51;101819.09;4954979;29;20302;-91
2022/09/01 09:48:47;;;;;;;6.85;2.17;;;;;;;34.68;20.90;101825.31;4960203;28;20047;-89
2022/09/01 09:51:21;;;;;;;6.68;2.05;;;;;;;34.37;21.82;101825.94;4972229;28;20035;-90
2022/09/01 09:53:47;;;;;;;5.40;2.88;;;;;;;34.75;20.83;101817.84;4967294;28;20486;-92
2022/09/01 09:56:19;;;;;;;8.77;4.57;;;;;;;34.83;20.67;101825.94;4955076;29;20038;-90
2022/09/01 09:58:47;;;;;;;5.03;2.60;;;;;;;34.83;19.76;101819.56;4954359;29;20031;-88
2022/09/01 10:01:21;;;;;;;6.13;2.22;;;;;;;34.78;20.37;101819.31;4953525;29;20035;-92
2022/09/01 10:03:49;;;;;;;7.47;2.33;;;;;;;35.42;20.36;101815.78;4971194;28;20027;-89
2022/09/01 10:06:45;;;;;;;3.38;1.60;;;;;;;35.96;19.31;101817.25;4972681;28;20042;-91
2022/09/01 10:09:34;;;;;;;5.18;1.52;;;;;;;36.55;18.43;101812.38;4972690;28;20039;-89
2022/09/01 10:12:00;;;;;;;3.65;1.30;;;;;;;36.51;18.36;101811.97;4971463;28;20282;-90
2022/09/01 10:14:41;;;;;;;3.78;1.85;;;;;;;37.08;18.53;101815.47;4972699;28;20025;-89
2022/09/01 10:17:29;;;;;;;3.97;2.22;;;;;;;37.10;19.37;101810.53;4973998;28;20026;-90
2022/09/01 10:20:04;;;;;;;4.40;2.10;;;;;;;37.35;17.25;101812.38;4973336;28;20444;-87
2022/09/01 10:22:30;;;;;;;3.50;1.65;;;;;;;36.88;16.53;101812.03;4971096;28;20031;-90
2022/09/01 10:24:55;;;;;;;2.63;1.42;;;;;;;36.49;17.00;101814.09;4973451;28;20353;-89
2022/09/01 10:27:30;;;;;;;4.10;1.55;;;;;;;36.66;17.49;101811.59;4972928;28;20218;-90
2022/09/01 10:30:18;;;;;;;6.22;2.20;;;;;;;37.66;16.40;101808.56;4956877;28;20041;-90
2022/09/01 10:32:47;;;;;;;2.60;1.60;;;;;;;37.56;15.64;101811.06;4955192;28;20066;-90
2022/09/01 10:35:25;;;;;;;3.25;1.25;;;;;;;37.44;16.46;101815.72;4972477;28;20392;-91
2022/09/01 10:37:52;;;;;;;2.22;1.10;;;;;;;37.59;15.90;101803.13;4972627;28;20078;-90
2022/09/01 10:40:31;;;;;;;2.65;1.02;;;;;;;38.25;16.00;101819.88;4972246;28;20539;-91
2022/09/01 10:43:00;;;;;;;1.42;0.98;;;;;;;38.35;15.39;101812.69;4971615;28;20091;-92
2022/09/01 10:45:36;;;;;;;1.40;1.00;;;;;;;38.79;15.46;101802.09;4972393;28;20062;-88
2022/09/01 10:48:19;;;;;;;4.10;1.30;;;;;;;39.19;14.55;101809.66;4972327;28;20081;-90
2022/09/01 10:50:46;;;;;;;3.13;1.23;;;;;;;38.55;14.25;101809.56;4972447;28;20480;-90
2022/09/01 10:53:30;;;;;;;1.65;0.90;;;;;;;39.24;15.20;101801.44;4972021;28;20026;-89
2022/09/01 10:56:21;;;;;;;1.65;1.30;;;;;;;38.63;15.07;101808.38;4972308;28;20392;-91
2022/09/01 10:59:07;;;;;;;3.15;1.10;;;;;;;37.26;16.87;101809.06;4949100;28;20639;-90
2022/09/01 11:01:38;;;;;;;2.83;1.30;;;;;;;37.08;16.43;101804.38;4967245;28;20605;-92
2022/09/01 11:04:04;;;;;;;1.30;1.00;;;;;;;37.44;15.50;101799.91;4968505;28;20085;-89
2022/09/01 11:06:39;;;;;;;3.67;1.25;;;;;;;37.58;15.28;101800.56;4973103;28;20030;-87
2022/09/01 11:09:15;;;;;;;1.33;1.02;;;;;;;38.33;14.43;101795.38;4973779;28;20043;-87
2022/09/01 11:12:12;;;;;;;4.35;1.30;;;;;;;38.69;14.75;101790.69;4972931;28;20397;-90
2022/09/01 11:14:50;;;;;;;3.58;1.25;;;;;;;38.98;14.87;101786.09;4972378;28;20161;-92
2022/09/01 11:17:31;;;;;;;2.45;1.10;;;;;;;39.86;14.80;101786.81;4973553;28;20034;-91
2022/09/01 11:20:04;;;;;;;3.50;1.40;;;;;;;40.49;13.14;101785.66;4969483;28;20035;-90
2022/09/01 11:22:53;;;;;;;1.17;1.00;;;;;;;41.14;12.98;101781.34;4968074;28;20042;-86
2022/09/01 11:25:39;;;;;;;3.17;1.20;;;;;;;41.30;13.78;101779.56;4953581;29;20029;-88
2022/09/01 11:28:10;;;;;;;4.20;1.25;;;;;;;41.83;12.04;101797.53;4968613;28;20085;-87
2022/09/01 11:30:52;;;;;;;3.33;1.23;;;;;;;40.62;12.27;101780.88;4971402;28;20077;-90
2022/09/01 11:33:28;;;;;;;4.70;1.50;;;;;;;40.28;13.27;101778.09;4980723;28;20030;-89
2022/09/01 11:36:03;;;;;;;4.90;1.40;;;;;;;38.47;14.46;101773.78;4984559;28;20358;-89
2022/09/01 11:38:41;;;;;;;2.50;1.25;;;;;;;38.09;15.26;101775.03;4955471;28;20436;-89
2022/09/01 11:41:06;;;;;;;2.60;1.08;;;;;;;38.86;14.22;101752.72;4958937;28;20038;-89
2022/09/01 11:43:32;;;;;;;2.80;1.30;;;;;;;39.67;13.11;101758.31;4974386;28;20038;-88